Weather at Ellistown Airstrip

Public forecast

Using degrees Celsius for public forecast. Weather courtesy of forecast.io.

Closest aviation weather report (METAR) to Ellistown Airstrip

Report is more than 6 hours old.

Closest report is Dublin Airport, 6.9 nm (12.8 km) S.

2022/11/14 15:30 (retrieved 2 years ago)

EIDW 141530Z 17011KT 140V210 9999 FEW018 11/05 Q1001 NOSIG

Closest aviation forecast (TAF) to Ellistown Airstrip

Forecast is more than 12 hours old.

Closest forecast is Dublin Airport, 6.9 nm (12.8 km) S.

2023/02/22 18:08 (retrieved 1 year ago)

TAF EIDW 221700Z 2218/2318 33013KT 9999 FEW010 BKN040 TEMPO 2218/2220 -SHRA FEW018CB PROB30 TEMPO 2218/2220 33015G25KT BECMG 2303/2305 32007KT BECMG 2315/2317 29007KT